M I D A S
Marine Information and Data Acquisition System
Tripno 1207 of the Zeeleeuw from 2007-01-26 07:44:56 to 2007-01-26 15:02:39
Back to CruiseResearch ActivitiesStationsMapUnderway DataData graphs

EquipmentUnitsComment
TimeDGPSUTC
LatitudeDGPSDM.mWGS84
LongitudeDGPSDM.mWGS84
HeadingGyrodeg 
SOGDGPSknotsSpeed over ground
COGDGPSdegCourse over ground
DepthEcho soundermeters200 kHz
Missing or incorrect values are displayed as -999
Navigation data collected by the RV Zeeleeuw from 2007-01-26 07:45:56 to 2007-01-26 15:12:23
Time Latitude Longitude Heading SOG COG Depth
2007-01-26 07:47:01 51°13.615 2°56.033 116.2 4.4 294 -999
2007-01-26 07:48:01 51°13.647 2°55.922 120.6 4.4 297 4.9
2007-01-26 07:49:01 51°13.676 2°55.831 114.1 3.3 294 -999
2007-01-26 07:50:01 51°13.69 2°55.76 97 2.4 279 12.8
2007-01-26 07:51:01 51°13.693 2°55.72 74.1 0.3 339 13.1
2007-01-26 07:52:01 51°13.721 2°55.728 5.6 3 352 13.2
2007-01-26 07:53:01 51°13.786 2°55.678 335.4 5.3 332 11
2007-01-26 07:54:01 51°13.88 2°55.606 339.4 7.1 334 11.8
2007-01-26 07:55:01 51°13.994 2°55.52 340.1 7.7 336 12.1
2007-01-26 07:56:01 51°14.112 2°55.434 338.6 7.9 333 12
2007-01-26 07:57:01 51°14.222 2°55.319 325 7.9 320 12
2007-01-26 07:58:01 51°14.321 2°55.158 316.5 9.2 314 12.1
2007-01-26 07:59:01 51°14.422 2°55.021 325.1 7.1 327 11.9
2007-01-26 08:00:01 51°14.558 2°54.942 347 9.8 344 10.7
2007-01-26 08:01:01 51°14.721 2°54.855 339.4 10.9 336 10.4
2007-01-26 08:02:01 51°14.89 2°54.701 330.6 12.4 329 10.4
2007-01-26 08:03:01 51°15.074 2°54.522 329.5 13.2 327 9.7
2007-01-26 08:04:01 51°15.255 2°54.325 328.8 13.2 326 9.9
2007-01-26 08:05:01 51°15.437 2°54.128 329 13.3 326 10.8
2007-01-26 08:06:01 51°15.619 2°53.933 329.5 13.2 327 11.5
2007-01-26 08:07:01 51°15.805 2°53.743 329.5 13.3 328 12
2007-01-26 08:08:01 51°15.99 2°53.55 329.5 13.2 328 12.6
2007-01-26 08:09:01 51°16.174 2°53.358 329.8 13.3 328 13
2007-01-26 08:10:01 51°16.368 2°53.186 333.3 13.4 331 13
2007-01-26 08:11:01 51°16.563 2°53.017 333.6 13.3 332 12.9
2007-01-26 08:12:01 51°16.758 2°52.851 333.2 13.3 329 11.6
2007-01-26 08:13:01 51°16.95 2°52.677 333.7 13.4 330 10.7
2007-01-26 08:14:01 51°17.144 2°52.506 333.4 13.4 331 10.7
2007-01-26 08:15:01 51°17.358 2°52.398 353.1 13.7 351 11.3
2007-01-26 08:16:01 51°17.588 2°52.366 0.1 14 358 11.4
2007-01-26 08:17:01 51°17.821 2°52.35 1.7 14 357 11.4
2007-01-26 08:18:01 51°18.054 2°52.33 0.6 14.2 356 11.7
2007-01-26 08:19:01 51°18.278 2°52.395 30.9 13.9 32 11.8
2007-01-26 08:20:01 51°18.423 2°52.672 69.6 13.7 71 12.4
2007-01-26 08:21:01 51°18.495 2°53.026 79.9 14.3 74 12.2
2007-01-26 08:22:01 51°18.56 2°53.388 74.7 13.9 70 12.1
2007-01-26 08:23:01 51°18.644 2°53.737 72.4 14 67 12.3
2007-01-26 08:24:01 51°18.727 2°54.089 76.2 14.3 71 12.2
2007-01-26 08:25:01 51°18.813 2°54.432 73.7 14.1 65 12.1
2007-01-26 08:26:01 51°18.906 2°54.775 74 14 73 12.1
2007-01-26 08:27:01 51°18.989 2°55.115 76.2 13.6 73 12.1
2007-01-26 08:28:01 51°19.074 2°55.46 73.7 14.2 67 11.9
2007-01-26 08:29:01 51°19.162 2°55.802 72 13.8 70 11.5
2007-01-26 08:30:01 51°19.251 2°56.144 74.4 14.1 66 11.5
2007-01-26 08:31:01 51°19.34 2°56.484 73.3 13.9 64 11.6
2007-01-26 08:32:01 51°19.427 2°56.834 73.1 14.2 66 11.2
2007-01-26 08:33:01 51°19.511 2°57.182 76.5 13.9 70 11.1
2007-01-26 08:34:01 51°19.599 2°57.531 71.4 14.1 66 10.9
2007-01-26 08:35:01 51°19.693 2°57.871 73.1 14 71 10.9
2007-01-26 08:36:01 51°19.783 2°58.215 74.5 14.1 67 10.7
2007-01-26 08:37:01 51°19.876 2°58.557 72.3 14.3 66 10.9
2007-01-26 08:38:01 51°19.968 2°58.901 74.3 14 67 11
2007-01-26 08:39:01 51°20.057 2°59.245 73.5 13.9 69 10.8
2007-01-26 08:40:01 51°20.146 2°59.576 71.1 13.2 72 10.9
2007-01-26 08:41:01 51°20.224 2°59.914 72.3 13.6 72 10.7
2007-01-26 08:42:01 51°20.31 3°0.257 72.5 13.8 72 10.6
2007-01-26 08:43:01 51°20.398 3°0.6 72.9 13.8 69 10.9
2007-01-26 08:44:01 51°20.488 3°0.948 76.3 14.2 67 10.6
2007-01-26 08:45:01 51°20.575 3°1.298 69.2 14 72 11
2007-01-26 08:46:01 51°20.663 3°1.642 74.5 14 72 10.8
2007-01-26 08:47:01 51°20.746 3°1.981 73.9 13.5 66 10.6
2007-01-26 08:48:01 51°20.827 3°2.319 73.9 13.8 67 10.7
2007-01-26 08:49:01 51°20.912 3°2.658 71.9 13.7 67 10.7
2007-01-26 08:50:01 51°21.002 3°2.996 72.6 13.8 62 10.7
2007-01-26 08:51:01 51°21.088 3°3.331 71.2 13.5 71 11.1
2007-01-26 08:52:01 51°21.175 3°3.666 74.4 13.7 69 11
2007-01-26 08:53:01 51°21.257 3°4.009 73.4 13.8 66 11.1
2007-01-26 08:54:01 51°21.339 3°4.345 73.4 13.9 71 11.1
2007-01-26 08:55:01 51°21.429 3°4.678 74 13.5 64 11.3
2007-01-26 08:56:01 51°21.513 3°5.016 72.5 13.7 72 11.3
2007-01-26 08:57:01 51°21.6 3°5.353 72.9 13.9 61 11.4
2007-01-26 08:58:01 51°21.684 3°5.691 73.7 13.5 67 11.7
2007-01-26 08:59:01 51°21.762 3°6.025 73.5 13.3 68 11.9
2007-01-26 09:00:01 51°21.836 3°6.36 75.8 13.3 65 11.8
2007-01-26 09:01:01 51°21.877 3°6.703 86.1 12.9 90 12.2
2007-01-26 09:02:01 51°21.906 3°7.05 83.2 13.1 80 12
2007-01-26 09:03:01 51°21.936 3°7.408 86 13.7 79 12.2
2007-01-26 09:04:01 51°21.979 3°7.76 81.2 13.3 81 12.1
2007-01-26 09:05:01 51°22.017 3°8.109 81.4 13.2 81 12.3
2007-01-26 09:06:01 51°22.055 3°8.458 83.7 13.1 82 12.4
2007-01-26 09:07:01 51°22.086 3°8.799 85.3 11.8 85 12.5
2007-01-26 09:08:01 51°22.02 3°8.954 173.4 7.2 186 12.7
2007-01-26 09:09:01 51°21.924 3°8.848 211.8 7.1 208 12.3
2007-01-26 09:10:01 51°21.804 3°8.766 202.2 9.5 203 11.6
2007-01-26 09:11:01 51°21.714 3°8.684 218.5 3.9 214 11.2
2007-01-26 09:12:01 51°21.691 3°8.655 231 0.7 200 11.1
2007-01-26 09:13:01 51°21.686 3°8.655 204.5 0.1 90 11.1
2007-01-26 09:14:01 51°21.684 3°8.66 178.4 0.2 160 11.2
2007-01-26 09:15:01 51°21.661 3°8.66 191.5 3 196 10.7
2007-01-26 09:16:01 51°21.613 3°8.583 245.4 5.1 245 10.8
2007-01-26 09:17:01 51°21.573 3°8.478 237.7 4.3 237 10.4
2007-01-26 09:18:01 51°21.549 3°8.379 254.6 3.8 247 10.2
2007-01-26 09:19:01 51°21.525 3°8.286 252.3 3.6 247 10.3
2007-01-26 09:20:01 51°21.504 3°8.2 253.8 3.5 250 10.3
2007-01-26 09:21:01 51°21.483 3°8.116 251.8 3.2 247 10.3
2007-01-26 09:22:01 51°21.462 3°8.047 249.6 2.9 247 10.2
2007-01-26 09:23:01 51°21.444 3°7.974 256.1 3.4 252 10.2
2007-01-26 09:24:01 51°21.426 3°7.88 256.7 3.7 254 9.8
2007-01-26 09:25:01 51°21.408 3°7.79 251.5 3.2 250 9.7
2007-01-26 09:26:01 51°21.388 3°7.713 252.9 3.1 248 9.6
2007-01-26 09:27:01 51°21.371 3°7.638 255.8 3 252 10
2007-01-26 09:28:01 51°21.351 3°7.562 251 3 245 9.7
2007-01-26 09:29:01 51°21.332 3°7.483 255.6 3.3 250 9.8
2007-01-26 09:30:01 51°21.314 3°7.403 253.7 3 247 9.6
2007-01-26 09:31:01 51°21.294 3°7.336 250.6 2.9 245 10.1
2007-01-26 09:32:01 51°21.274 3°7.268 251.9 2.7 252 9.7
2007-01-26 09:33:01 51°21.258 3°7.197 255.4 2.9 246 9.2
2007-01-26 09:34:01 51°21.242 3°7.123 255.2 3.1 255 9.4
2007-01-26 09:35:01 51°21.225 3°7.048 254.6 3.1 253 9.2
2007-01-26 09:36:01 51°21.207 3°6.974 251.7 2.9 243 9.1
2007-01-26 09:37:01 51°21.186 3°6.902 252.2 3 249 9.4
2007-01-26 09:38:01 51°21.164 3°6.828 252.9 3 247 9
2007-01-26 09:39:01 51°21.144 3°6.756 252.3 3.1 249 8.8
2007-01-26 09:40:01 51°21.126 3°6.682 256.1 3.1 251 9.2
2007-01-26 09:41:01 51°21.108 3°6.61 254.8 2.6 246 8.6
2007-01-26 09:42:01 51°21.09 3°6.535 257.8 3.4 252 9
2007-01-26 09:43:01 51°21.07 3°6.451 256.9 3.5 248 9
2007-01-26 09:44:01 51°21.051 3°6.361 259.7 3.5 251 9
2007-01-26 09:45:01 51°21.031 3°6.273 259.5 3.6 251 8.8
2007-01-26 09:46:01 51°21.013 3°6.178 259.1 3.9 248 8.6
2007-01-26 09:47:01 51°20.991 3°6.094 255 3.4 246 8.6
2007-01-26 09:48:01 51°20.972 3°6.018 256.1 3 249 9.2
2007-01-26 09:49:01 51°20.952 3°5.95 253.8 2.8 246 8.5
2007-01-26 09:50:01 51°20.934 3°5.879 256.6 2.8 251 8.7
2007-01-26 09:51:01 51°20.919 3°5.824 255 2.1 235 8.4
2007-01-26 09:52:01 51°20.905 3°5.783 251.7 1.6 234 8.3
2007-01-26 09:53:01 51°20.894 3°5.751 251.2 1.3 235 7.7
2007-01-26 09:54:01 51°20.883 3°5.718 254.7 1.8 253 8
2007-01-26 09:55:01 51°20.876 3°5.607 278.8 5.7 276 8.3
2007-01-26 09:56:01 51°20.891 3°5.511 297.1 2.4 289 8.7
2007-01-26 09:57:01 51°20.903 3°5.477 312.9 0.9 304 8.8
2007-01-26 09:58:01 51°20.91 3°5.467 334.6 1.2 333 8.3
2007-01-26 09:59:01 51°20.943 3°5.477 43.6 3.5 42 8.6
2007-01-26 10:00:01 51°21.015 3°5.588 47.8 8.5 34 8.6
2007-01-26 10:01:01 51°21.148 3°5.727 41.8 10.1 33 9
2007-01-26 10:02:01 51°21.286 3°5.886 44.8 10.3 36 9.5
2007-01-26 10:03:01 51°21.421 3°6.051 47.1 10.1 38 9.9
2007-01-26 10:04:01 51°21.55 3°6.222 47 10.1 42 10.1
2007-01-26 10:05:01 51°21.68 3°6.397 52.6 10.6 39 10.7
2007-01-26 10:06:01 51°21.791 3°6.658 72.3 12.4 60 10.9
2007-01-26 10:07:01 51°21.851 3°6.971 81.5 12.8 74 10.9
2007-01-26 10:08:01 51°21.902 3°7.29 81.2 12.5 75 11.2
2007-01-26 10:09:01 51°21.951 3°7.609 84.4 12.7 77 11.1
2007-01-26 10:10:01 51°21.99 3°7.927 84.5 12.1 77 11.3
2007-01-26 10:11:01 51°22.028 3°8.237 81.2 11.8 75 11.3
2007-01-26 10:12:01 51°22.068 3°8.555 83.7 12.3 83 11.4
2007-01-26 10:13:01 51°22.098 3°8.871 86.5 12.2 78 11.7
2007-01-26 10:14:01 51°22.127 3°9.181 80.8 12 85 11.8
2007-01-26 10:15:01 51°22.153 3°9.493 86.1 11.6 85 12.6
2007-01-26 10:16:01 51°22.189 3°9.802 77.9 11.9 73 12.9
2007-01-26 10:17:01 51°22.228 3°10.113 80.6 12.2 79 13.6
2007-01-26 10:18:01 51°22.268 3°10.427 82.7 12.2 82 14.7
2007-01-26 10:19:01 51°22.309 3°10.746 82.1 12.3 75 18.3
2007-01-26 10:20:01 51°22.357 3°11.056 78.5 11.7 76 15.3
2007-01-26 10:21:01 51°22.4 3°11.364 79.5 11.8 81 14.9
2007-01-26 10:22:01 51°22.446 3°11.663 78.3 12.5 74 14.8
2007-01-26 10:23:01 51°22.497 3°11.966 77.2 11.5 72 14.3
2007-01-26 10:24:01 51°22.55 3°12.266 77.5 11.9 79 13.5
2007-01-26 10:25:01 51°22.6 3°12.564 80.3 11.7 75 13
2007-01-26 10:26:01 51°22.641 3°12.872 80.6 11.8 79 12.2
2007-01-26 10:27:01 51°22.741 3°13.139 56.6 12 39 11.3
2007-01-26 10:28:01 51°22.935 3°13.225 9.4 12.9 358 10.5
2007-01-26 10:29:01 51°23.151 3°13.184 2.4 13.2 353 10.4
2007-01-26 10:30:01 51°23.369 3°13.145 2.5 13.1 355 10
2007-01-26 10:31:01 51°23.587 3°13.102 2.9 13.2 353 11.1
2007-01-26 10:32:01 51°23.807 3°13.059 3.1 13.2 356 10.7
2007-01-26 10:33:01 51°24.027 3°13.013 3.8 13.3 352 11.5
2007-01-26 10:34:01 51°24.248 3°12.971 3 13.2 353 16
2007-01-26 10:35:01 51°24.468 3°12.924 3.1 13.2 353 18.4
2007-01-26 10:36:01 51°24.687 3°12.868 4.1 13.3 350 15
2007-01-26 10:37:01 51°24.908 3°12.825 6.6 13.5 353 12.4
2007-01-26 10:38:01 51°25.121 3°12.73 346 13.6 335 11.1
2007-01-26 10:39:01 51°25.27 3°12.458 299.9 14.2 288 9.6
2007-01-26 10:40:01 51°25.247 3°12.092 248.8 14.2 249 9.6
2007-01-26 10:41:01 51°25.174 3°11.732 254.9 14.3 255 9.5
2007-01-26 10:42:01 51°25.115 3°11.363 256.7 14.4 258 9.1
2007-01-26 10:43:01 51°25.064 3°10.99 259.1 14.3 258 8.8
2007-01-26 10:44:01 51°25.017 3°10.62 260.5 14.2 260 8.2
2007-01-26 10:45:01 51°24.972 3°10.254 260.8 14 259 7.9
2007-01-26 10:46:01 51°24.925 3°9.89 260.4 13.9 258 7.8
2007-01-26 10:47:01 51°24.88 3°9.527 260.9 14 260 7.5
2007-01-26 10:48:01 51°24.838 3°9.158 262.5 14.1 260 7.8
2007-01-26 10:49:01 51°24.795 3°8.789 262.1 14.3 261 8.2
2007-01-26 10:50:01 51°24.753 3°8.418 262.8 14.1 261 8.5
2007-01-26 10:51:01 51°24.712 3°8.049 262.4 14.1 260 9
2007-01-26 10:52:01 51°24.683 3°7.683 269.4 13.9 273 9.8
2007-01-26 10:53:01 51°24.788 3°7.38 327.9 13 333 9.8
2007-01-26 10:54:01 51°24.998 3°7.283 358.5 13 349 8.6
2007-01-26 10:55:01 51°25.215 3°7.226 0.5 13.4 350 8.4
2007-01-26 10:56:01 51°25.436 3°7.175 359.6 13.2 354 8.6
2007-01-26 10:57:01 51°25.656 3°7.128 359.7 13.2 353 8.7
2007-01-26 10:58:01 51°25.875 3°7.083 0.3 13.3 353 9.2
2007-01-26 10:59:01 51°26.078 3°7.163 42 12.8 34 8.9
2007-01-26 11:00:01 51°26.189 3°7.442 73.5 12.4 75 7.5
2007-01-26 11:01:01 51°26.273 3°7.751 70.6 12.9 67 8.4
2007-01-26 11:02:01 51°26.358 3°8.074 71.8 13.2 67 8.5
2007-01-26 11:03:01 51°26.451 3°8.394 73.2 13.3 66 9.8
2007-01-26 11:04:01 51°26.545 3°8.713 74.4 13.2 62 10.1
2007-01-26 11:05:01 51°26.662 3°9.001 48.8 13.2 29 9.9
2007-01-26 11:06:01 51°26.872 3°9.013 351.2 12.7 340 10.2
2007-01-26 11:07:01 51°27.045 3°8.809 324.6 13.4 319 11.2
2007-01-26 11:08:01 51°27.225 3°8.598 332.2 13.5 327 11.4
2007-01-26 11:09:01 51°27.411 3°8.407 332.8 13.1 327 11.6
2007-01-26 11:10:01 51°27.591 3°8.227 332.4 12.9 327 11.9
2007-01-26 11:11:01 51°27.774 3°8.039 333 13.1 328 11
2007-01-26 11:12:01 51°27.951 3°7.858 333 12.4 328 12.4
2007-01-26 11:13:01 51°28.122 3°7.685 334.2 11.8 328 13.2
2007-01-26 11:14:01 51°28.288 3°7.521 333.8 11.7 329 -999
2007-01-26 11:15:01 51°28.456 3°7.348 333.1 11.7 326 14.3
2007-01-26 11:16:01 51°28.618 3°7.181 333.2 12 327 15.3
2007-01-26 11:17:01 51°28.786 3°7.01 333.1 11.9 328 15.3
2007-01-26 11:18:01 51°28.952 3°6.838 333.3 11.7 327 15.8
2007-01-26 11:19:01 51°29.117 3°6.669 332.7 12 327 17.1
2007-01-26 11:20:01 51°29.285 3°6.487 332.7 12.2 327 17.8
2007-01-26 11:21:01 51°29.445 3°6.324 333.1 11.2 330 18.9
2007-01-26 11:22:01 51°29.608 3°6.152 333.7 11.9 329 21.4
2007-01-26 11:23:01 51°29.769 3°5.98 334.8 11.5 326 22.4
2007-01-26 11:24:01 51°29.94 3°5.816 336.5 12 329 22.6
2007-01-26 11:25:01 51°30.1 3°5.639 322 11.3 314 23.5
2007-01-26 11:26:01 51°30.158 3°5.339 278.1 12.3 266 23.3
2007-01-26 11:27:01 51°30.089 3°5.029 242.4 12.7 238 22.3
2007-01-26 11:28:01 51°29.951 3°4.785 228 12.7 224 22.5
2007-01-26 11:29:02 51°29.796 3°4.543 225.9 12.7 226 22.6
2007-01-26 11:30:02 51°29.643 3°4.308 226.2 12.9 229 22.3
2007-01-26 11:31:01 51°29.491 3°4.069 226.9 12.9 228 22.2
2007-01-26 11:32:02 51°29.336 3°3.82 228.6 12.9 222 22.8
2007-01-26 11:33:01 51°29.188 3°3.576 229.3 13 224 22.4
2007-01-26 11:34:02 51°29.035 3°3.324 228.8 12.8 226 22.4
2007-01-26 11:35:02 51°28.883 3°3.079 229.3 13.1 227 22.7
2007-01-26 11:36:02 51°28.733 3°2.831 228.8 12.8 227 22.6
2007-01-26 11:37:02 51°28.582 3°2.585 229.1 13.2 226 22.9
2007-01-26 11:38:02 51°28.431 3°2.335 229.3 13.3 228 22.8
2007-01-26 11:39:02 51°28.278 3°2.083 228.6 13 227 23
2007-01-26 11:40:02 51°28.125 3°1.833 229.7 13 227 22.9
2007-01-26 11:41:02 51°27.973 3°1.582 229.3 13.2 226 22.9
2007-01-26 11:42:02 51°27.822 3°1.332 228.7 12.9 228 22.1
2007-01-26 11:43:02 51°27.669 3°1.087 227.7 13 226 22.6
2007-01-26 11:44:02 51°27.517 3°0.842 229.3 12.9 224 21.8
2007-01-26 11:45:02 51°27.362 3°0.594 228.6 13.4 226 23.2
2007-01-26 11:46:02 51°27.207 3°0.342 229.3 13.1 224 24.4
2007-01-26 11:47:02 51°27.053 3°0.098 229.3 13.3 224 23.6
2007-01-26 11:48:02 51°26.9 2°59.844 229.8 13.4 227 23.5
2007-01-26 11:49:01 51°26.751 2°59.599 231 13 223 23.8
2007-01-26 11:50:02 51°26.596 2°59.353 228.6 12.6 224 23.3
2007-01-26 11:51:02 51°26.448 2°59.112 230.1 12.6 225 23.3
2007-01-26 11:52:02 51°26.356 2°58.829 260.7 12.3 261 23.1
2007-01-26 11:53:02 51°26.395 2°58.516 301.1 12.1 300 20.4
2007-01-26 11:54:02 51°26.542 2°58.327 342.1 11.4 339 17.3
2007-01-26 11:55:02 51°26.73 2°58.295 6.1 11.5 9 13.9
2007-01-26 11:56:02 51°26.915 2°58.368 21.2 11.5 19 14.9
2007-01-26 11:57:02 51°27.099 2°58.452 20.7 11.7 21 15.3
2007-01-26 11:58:02 51°27.284 2°58.538 22.4 11.5 18 17.2
2007-01-26 11:59:02 51°27.466 2°58.632 23.4 11.4 18 16.6
2007-01-26 12:00:02 51°27.653 2°58.719 21.1 11.8 19 18
2007-01-26 12:01:02 51°27.84 2°58.8 21 11.8 15 18.9
2007-01-26 12:02:02 51°28.026 2°58.876 19.9 11.6 14 20.2
2007-01-26 12:03:02 51°28.214 2°58.956 20.7 11.5 13 23.3
2007-01-26 12:04:02 51°28.398 2°59.04 21.3 11.4 18 26.2
2007-01-26 12:05:02 51°28.585 2°59.124 21.1 11.7 16 27.4
2007-01-26 12:06:02 51°28.772 2°59.21 21 11.8 19 29.2
2007-01-26 12:07:02 51°28.959 2°59.292 19.8 11.6 18 28.4
2007-01-26 12:08:02 51°29.142 2°59.375 21.3 11.2 16 28.4
2007-01-26 12:09:02 51°29.325 2°59.451 20.3 11.4 14 29
2007-01-26 12:10:02 51°29.508 2°59.535 21.4 11.5 16 27.4
2007-01-26 12:11:02 51°29.691 2°59.616 21.3 11.1 17 26.2
2007-01-26 12:12:02 51°29.872 2°59.697 21 11.5 15 26.2
2007-01-26 12:13:02 51°30.054 2°59.773 22.5 11.4 15 26
2007-01-26 12:14:02 51°30.235 2°59.851 21.6 11.3 12 25.6
2007-01-26 12:15:02 51°30.416 2°59.925 18.8 11.1 12 26.4
2007-01-26 12:16:02 51°30.601 2°59.986 16.3 11.4 11 26.2
2007-01-26 12:17:02 51°30.79 3°0.044 16.3 11.5 11 25.2
2007-01-26 12:18:02 51°30.975 3°0.108 17.1 10.9 12 26.4
2007-01-26 12:19:02 51°31.154 3°0.168 19.3 10.8 9 26.1
2007-01-26 12:20:02 51°31.33 3°0.231 17.3 10.9 14 26.7
2007-01-26 12:21:02 51°31.507 3°0.289 17.1 10.8 13 26.3
2007-01-26 12:22:02 51°31.677 3°0.348 18.3 10.5 12 25.7
2007-01-26 12:23:02 51°31.852 3°0.41 18.6 10.7 12 24.7
2007-01-26 12:24:02 51°32.027 3°0.471 18.8 10.7 12 23
2007-01-26 12:25:02 51°32.199 3°0.532 18.1 10.7 11 25.2
2007-01-26 12:26:02 51°32.369 3°0.595 19 10.4 17 25.3
2007-01-26 12:27:02 51°32.541 3°0.656 17.6 10.5 13 28
2007-01-26 12:28:02 51°32.711 3°0.72 19.6 10.2 15 30.4
2007-01-26 12:29:02 51°32.879 3°0.778 17.6 10.5 9 32
2007-01-26 12:30:02 51°33.054 3°0.837 17.8 10.8 12 32.3
2007-01-26 12:31:02 51°33.225 3°0.896 19.5 10.1 14 33.7
2007-01-26 12:32:02 51°33.395 3°0.954 16.1 10.8 13 33.4
2007-01-26 12:33:02 51°33.57 3°1.012 16.6 10.8 12 33.2
2007-01-26 12:34:02 51°33.743 3°1.072 17.9 10.5 10 28
2007-01-26 12:35:02 51°33.911 3°1.137 19.4 10.2 13 16.7
2007-01-26 12:36:02 51°34.079 3°1.19 14 10.5 4 16
2007-01-26 12:37:02 51°34.248 3°1.157 356.7 10.1 347 13.9
2007-01-26 12:38:02 51°34.413 3°1.103 355.5 10 349 13.8
2007-01-26 12:39:02 51°34.58 3°1.05 356.2 10.3 349 15.3
2007-01-26 12:40:02 51°34.75 3°0.997 355.7 10.4 352 18
2007-01-26 12:41:02 51°34.923 3°0.944 356.6 10.5 351 19.9
2007-01-26 12:42:02 51°35.099 3°0.891 356.8 10.7 349 22.1
2007-01-26 12:43:02 51°35.275 3°0.832 356.2 10.9 350 25.7
2007-01-26 12:44:02 51°35.453 3°0.775 357.1 10.9 349 27.1
2007-01-26 12:45:02 51°35.592 3°0.633 319.6 9.9 304 29.8
2007-01-26 12:46:02 51°35.602 3°0.354 265 11.2 249 28.6
2007-01-26 12:47:02 51°35.486 3°0.096 236.6 12.3 229 30.4
2007-01-26 12:48:02 51°35.352 2°59.843 236.4 12.4 230 28
2007-01-26 12:49:02 51°35.218 2°59.586 236.6 12.5 231 29.5
2007-01-26 12:50:02 51°35.085 2°59.33 237 12.7 229 29.7
2007-01-26 12:51:02 51°34.953 2°59.079 236.6 12.2 231 28.7
2007-01-26 12:52:02 51°34.82 2°58.83 237.3 12.7 225 26.9
2007-01-26 12:53:02 51°34.688 2°58.583 236.6 12 229 26.8
2007-01-26 12:54:02 51°34.557 2°58.329 238.4 12.5 231 28.5
2007-01-26 12:55:02 51°34.426 2°58.092 235.6 11.1 229 25.7
2007-01-26 12:56:02 51°34.304 2°57.862 237.3 11.7 233 26.7
2007-01-26 12:57:02 51°34.177 2°57.623 237.3 11.5 227 27.7
2007-01-26 12:58:02 51°34.053 2°57.393 237.4 11.2 227 28
2007-01-26 12:59:02 51°33.93 2°57.16 237.3 11.8 230 27.7
2007-01-26 13:00:02 51°33.802 2°56.919 237.2 11.8 230 27.8
2007-01-26 13:01:02 51°33.676 2°56.683 238.6 11.7 230 27.5
2007-01-26 13:02:02 51°33.555 2°56.441 238.9 11.4 231 25.9
2007-01-26 13:03:02 51°33.435 2°56.211 239.5 11.3 231 26.4
2007-01-26 13:04:02 51°33.322 2°55.965 242 11.9 234 27.3
2007-01-26 13:05:02 51°33.204 2°55.717 241.4 11.2 232 24.6
2007-01-26 13:06:02 51°33.089 2°55.473 241.2 11.6 232 24.6
2007-01-26 13:07:02 51°32.974 2°55.227 241.6 11.6 232 21.9
2007-01-26 13:08:02 51°32.859 2°54.98 241.6 11.4 232 25
2007-01-26 13:09:02 51°32.745 2°54.732 241.6 11.5 233 23.8
2007-01-26 13:10:02 51°32.631 2°54.489 239.6 11.1 233 20.6
2007-01-26 13:11:02 51°32.521 2°54.246 240.9 11.4 234 21.3
2007-01-26 13:12:02 51°32.408 2°54.001 241 11.5 234 20.3
2007-01-26 13:13:02 51°32.297 2°53.759 241.3 11.3 235 23.1
2007-01-26 13:14:02 51°32.187 2°53.515 242.1 11.4 233 23.1
2007-01-26 13:15:02 51°32.076 2°53.265 241.7 11.7 236 23.5
2007-01-26 13:16:02 51°31.965 2°53.011 243.2 11.5 238 23.5
2007-01-26 13:17:02 51°31.86 2°52.751 244.9 11.5 238 21.7
2007-01-26 13:18:02 51°31.758 2°52.5 245.2 11.4 240 24.3
2007-01-26 13:19:02 51°31.659 2°52.235 246.7 11.5 239 23.6
2007-01-26 13:20:02 51°31.56 2°51.972 246.1 11.3 239 24.7
2007-01-26 13:21:02 51°31.461 2°51.706 246.7 11.8 240 23.8
2007-01-26 13:22:02 51°31.362 2°51.45 246.5 11.2 240 25.2
2007-01-26 13:23:02 51°31.265 2°51.193 246.2 11.3 240 24.9
2007-01-26 13:24:02 51°31.162 2°50.937 242 11.4 236 22.2
2007-01-26 13:25:02 51°31.056 2°50.697 243.5 11.2 237 25.6
2007-01-26 13:26:02 51°30.951 2°50.449 243.2 11.8 236 25.2
2007-01-26 13:27:02 51°30.845 2°50.193 244.1 11.5 236 25.4
2007-01-26 13:28:02 51°30.741 2°49.937 244.8 11.7 236 25.3
2007-01-26 13:29:02 51°30.633 2°49.682 243.6 11.4 236 23
2007-01-26 13:30:02 51°30.528 2°49.433 243.2 11.4 236 25.2
2007-01-26 13:31:02 51°30.472 2°49.163 278.1 10.6 274 24.5
2007-01-26 13:32:02 51°30.562 2°48.98 342 8.7 340 24.2
2007-01-26 13:33:02 51°30.707 2°49.01 22.7 9.5 11 26.1
2007-01-26 13:34:02 51°30.864 2°49.024 4.7 9.5 357 26.4
2007-01-26 13:35:02 51°31.021 2°48.989 2 9.3 6 26.7
2007-01-26 13:36:02 51°31.123 2°49.161 65.5 9.8 71 30
2007-01-26 13:37:02 51°31.09 2°49.423 116.5 10.8 116 28.2
2007-01-26 13:38:02 51°30.964 2°49.648 139.1 11.8 144 25.3
2007-01-26 13:39:02 51°30.775 2°49.724 175.5 12.1 185 21.7
2007-01-26 13:40:02 51°30.576 2°49.679 187.3 12.2 188 24.2
2007-01-26 13:41:02 51°30.372 2°49.667 177 12.1 182 24.8
2007-01-26 13:42:02 51°30.171 2°49.707 170.7 12 172 22
2007-01-26 13:43:02 51°29.971 2°49.758 170.3 12.2 169 23.5
2007-01-26 13:44:02 51°29.769 2°49.801 171.1 12.2 173 26.9
2007-01-26 13:45:02 51°29.569 2°49.846 171.8 12 173 28.5
2007-01-26 13:46:02 51°29.371 2°49.886 174 11.8 171 31
2007-01-26 13:47:02 51°29.174 2°49.921 172 11.7 176 30.8
2007-01-26 13:48:02 51°28.978 2°49.963 172.9 11.9 172 27.3
2007-01-26 13:49:02 51°28.779 2°49.996 171.7 12.2 179 27.5
2007-01-26 13:50:02 51°28.58 2°50.028 172.3 12.1 177 27.1
2007-01-26 13:51:02 51°28.381 2°50.06 172.2 12.1 172 26.4
2007-01-26 13:52:02 51°28.183 2°50.089 171.2 11.8 176 27.9
2007-01-26 13:53:02 51°27.986 2°50.121 170.9 12 175 28
2007-01-26 13:54:02 51°27.789 2°50.155 172.5 11.8 176 29.4
2007-01-26 13:55:02 51°27.591 2°50.184 172 12 177 25.3
2007-01-26 13:56:02 51°27.393 2°50.219 171.5 12 172 23.8
2007-01-26 13:57:02 51°27.194 2°50.252 171.3 12 175 21.3
2007-01-26 13:58:02 51°26.993 2°50.284 172 12.1 176 20.5
2007-01-26 13:59:02 51°26.795 2°50.318 172 12.1 174 21.8
2007-01-26 14:00:02 51°26.597 2°50.357 171.3 12.2 168 23.1
2007-01-26 14:01:02 51°26.401 2°50.392 173.5 11.9 173 23.4
2007-01-26 14:02:02 51°26.202 2°50.423 171.2 12 177 23.1
2007-01-26 14:03:02 51°26.007 2°50.456 172 11.7 176 23.5
2007-01-26 14:04:02 51°25.813 2°50.493 172.8 11.6 170 23.1
2007-01-26 14:05:02 51°25.618 2°50.526 172.9 11.6 173 23.5
2007-01-26 14:06:02 51°25.422 2°50.558 172.6 11.7 174 23.7
2007-01-26 14:07:02 51°25.225 2°50.59 172.8 12 174 22.9
2007-01-26 14:08:02 51°25.026 2°50.623 171.2 12 173 22.9
2007-01-26 14:09:02 51°24.83 2°50.655 171.1 11.8 173 22.8
2007-01-26 14:10:02 51°24.632 2°50.685 172.7 11.8 175 22.7
2007-01-26 14:11:02 51°24.436 2°50.72 171.5 11.8 172 22.9
2007-01-26 14:12:02 51°24.239 2°50.761 170.9 12 171 22.1
2007-01-26 14:13:02 51°24.044 2°50.804 171.5 11.8 172 21.8
2007-01-26 14:14:02 51°23.848 2°50.844 171.8 12 171 20.5
2007-01-26 14:15:02 51°23.651 2°50.883 171 11.7 174 18.3
2007-01-26 14:16:02 51°23.456 2°50.926 172.5 11.8 170 16.2
2007-01-26 14:17:02 51°23.26 2°50.969 171.2 11.9 177 15
2007-01-26 14:18:02 51°23.062 2°51.017 172.3 12.4 169 14.6
2007-01-26 14:19:02 51°22.866 2°51.06 170.7 11.8 177 21.9
2007-01-26 14:20:02 51°22.672 2°51.104 170.6 11.9 176 22.8
2007-01-26 14:21:02 51°22.48 2°51.15 172.5 11.7 167 23
2007-01-26 14:22:02 51°22.288 2°51.193 171.5 12 168 23.4
2007-01-26 14:23:02 51°22.095 2°51.236 169.8 11.8 176 23.4
2007-01-26 14:24:02 51°21.902 2°51.285 172.4 11.8 170 24.3
2007-01-26 14:25:02 51°21.709 2°51.325 171.2 11.5 175 24.4
2007-01-26 14:26:02 51°21.518 2°51.367 169 11.5 175 23.9
2007-01-26 14:27:02 51°21.327 2°51.407 171.2 11.6 172 22.9
2007-01-26 14:28:02 51°21.137 2°51.448 172.2 11.8 169 20.8
2007-01-26 14:29:02 51°20.947 2°51.491 170.6 11.3 172 18.6
2007-01-26 14:30:02 51°20.755 2°51.536 170.5 11.7 174 16.4
2007-01-26 14:31:02 51°20.563 2°51.579 171.4 11.7 171 15.4
2007-01-26 14:32:02 51°20.37 2°51.627 169.6 11.5 174 13.8
2007-01-26 14:33:02 51°20.177 2°51.678 169.9 11.6 171 13.6
2007-01-26 14:34:02 51°19.977 2°51.726 171.7 12.5 172 15.4
2007-01-26 14:35:02 51°19.771 2°51.776 172.9 12.3 168 15.9
2007-01-26 14:36:02 51°19.564 2°51.825 173.3 12.9 168 16.1
2007-01-26 14:37:02 51°19.36 2°51.877 170.2 12.5 166 15.8
2007-01-26 14:38:02 51°19.154 2°51.925 172.4 12.7 174 15
2007-01-26 14:39:02 51°18.948 2°51.979 173.1 12.7 167 14.4
2007-01-26 14:40:02 51°18.744 2°52.029 172.1 12.4 169 13.3
2007-01-26 14:41:02 51°18.537 2°52.066 172.7 12.7 176 12.4
2007-01-26 14:42:02 51°18.331 2°52.106 174.1 12.8 171 11.7
2007-01-26 14:43:02 51°18.125 2°52.151 170.6 12.3 176 11.4
2007-01-26 14:44:02 51°17.917 2°52.196 172.4 12.7 174 10.8
2007-01-26 14:45:02 51°17.71 2°52.242 172.8 12.4 173 10.9
2007-01-26 14:46:02 51°17.502 2°52.286 171.7 13 176 10.8
2007-01-26 14:47:02 51°17.294 2°52.331 174.8 12.7 173 11
2007-01-26 14:48:02 51°17.088 2°52.38 173 12.4 175 10.6
2007-01-26 14:49:02 51°16.883 2°52.426 171.4 12.1 174 10.2
2007-01-26 14:50:02 51°16.673 2°52.486 173.9 13.3 165 10.9
2007-01-26 14:51:02 51°16.453 2°52.557 169 13.2 165 12.3
2007-01-26 14:52:02 51°16.238 2°52.655 164.1 13.8 163 12.9
2007-01-26 14:53:02 51°16.032 2°52.803 150.6 14 150 12.6
2007-01-26 14:54:02 51°15.835 2°52.995 148.9 14.2 155 12.2
2007-01-26 14:55:02 51°15.637 2°53.177 149.1 14.1 152 11.6
2007-01-26 14:56:02 51°15.44 2°53.354 151.4 13.8 150 11
2007-01-26 14:57:02 51°15.24 2°53.534 150.6 13.6 150 10.5
2007-01-26 14:58:02 51°15.045 2°53.714 148.7 13.7 152 9.8
2007-01-26 14:59:02 51°14.881 2°53.953 131.2 14 134 9.9
2007-01-26 15:00:02 51°14.738 2°54.211 132.8 13.4 128 10.5
2007-01-26 15:01:02 51°14.601 2°54.509 126.7 13.9 123 10.4
2007-01-26 15:02:02 51°14.474 2°54.813 129.3 13.5 124 11.2
2007-01-26 15:03:02 51°14.345 2°55.112 129.1 13.5 127 11.1
2007-01-26 15:04:02 51°14.19 2°55.363 146.8 12.1 145 -999
2007-01-26 15:05:02 51°14.031 2°55.486 159.6 10 154 11.3
2007-01-26 15:06:02 51°13.883 2°55.593 159 9.6 156 11.4
2007-01-26 15:07:02 51°13.761 2°55.71 146.9 7.4 140 10.6
2007-01-26 15:08:03 51°13.685 2°55.833 130.1 5.3 128 -999
2007-01-26 15:09:02 51°13.642 2°55.932 126.5 4.3 123 -999
2007-01-26 15:10:02 51°13.612 2°56.022 114.5 3.3 110 -999
2007-01-26 15:11:03 51°13.601 2°56.083 116.2 1.1 106 -999
2007-01-26 15:12:02 51°13.597 2°56.093 123.8 0.2 117 -999